createdAt,value
2023-05-09T00:00:55.357Z,16.21
2023-05-09T00:03:34.697Z,16.19
2023-05-09T00:06:14.695Z,16.17
2023-05-09T00:08:54.062Z,16.16
2023-05-09T00:11:33.378Z,16.14
2023-05-09T00:14:19.702Z,16.14
2023-05-09T00:17:00.525Z,16.13
2023-05-09T00:19:40.351Z,16.11
2023-05-09T00:22:20.414Z,16.09
2023-05-09T00:25:00.183Z,16.08
2023-05-09T00:27:39.494Z,16.06
2023-05-09T00:30:24.402Z,16.05
2023-05-09T00:33:03.800Z,16.04
2023-05-09T00:35:43.140Z,16.02
2023-05-09T00:38:22.627Z,16.01
2023-05-09T00:41:02.001Z,15.97
2023-05-09T00:43:41.435Z,15.95
2023-05-09T00:46:26.134Z,15.94
2023-05-09T00:49:05.665Z,15.93
2023-05-09T00:51:46.654Z,15.93
2023-05-09T00:54:26.030Z,15.93
2023-05-09T00:57:05.426Z,15.93
2023-05-09T00:59:44.984Z,15.92
2023-05-09T01:02:30.374Z,15.92
2023-05-09T01:05:11.166Z,15.91
2023-05-09T01:07:57.597Z,15.90
2023-05-09T01:10:47.073Z,15.89
2023-05-09T01:13:39.307Z,15.89
2023-05-09T01:16:27.936Z,15.87
2023-05-09T01:19:44.829Z,15.85
2023-05-09T01:22:25.892Z,15.83
2023-05-09T01:25:41.254Z,15.81
2023-05-09T01:28:26.505Z,15.79
2023-05-09T01:31:13.125Z,15.78
2023-05-09T01:33:56.640Z,15.76
2023-05-09T01:36:40.369Z,15.74
2023-05-09T01:39:21.186Z,15.73
2023-05-09T01:42:04.099Z,15.71
2023-05-09T01:44:48.421Z,15.70
2023-05-09T01:47:34.523Z,15.70
2023-05-09T01:50:16.750Z,15.69
2023-05-09T01:53:00.219Z,15.67
2023-05-09T01:55:41.613Z,15.66
2023-05-09T01:58:23.304Z,15.65
2023-05-09T02:01:03.159Z,15.63
2023-05-09T02:03:51.875Z,15.61
2023-05-09T02:06:32.918Z,15.60
2023-05-09T02:09:12.805Z,15.59
2023-05-09T02:11:52.406Z,15.59
2023-05-09T02:14:31.865Z,15.57
2023-05-09T02:17:12.593Z,15.56
2023-05-09T02:19:57.215Z,15.55
2023-05-09T02:22:36.735Z,15.54
2023-05-09T02:25:18.274Z,15.53
2023-05-09T02:28:01.072Z,15.53
2023-05-09T02:30:45.866Z,15.53
2023-05-09T02:33:25.603Z,15.52
2023-05-09T02:36:10.874Z,15.51
2023-05-09T02:38:51.857Z,15.52
2023-05-09T02:41:34.733Z,15.52
2023-05-09T02:44:14.018Z,15.52
2023-05-09T02:46:53.324Z,15.52
2023-05-09T02:49:32.888Z,15.51
2023-05-09T02:52:17.615Z,15.50
2023-05-09T02:54:56.903Z,15.48
2023-05-09T02:57:36.176Z,15.47
2023-05-09T03:00:17.076Z,15.47
2023-05-09T03:02:57.253Z,15.47
2023-05-09T03:05:36.859Z,15.46
2023-05-09T03:08:21.197Z,15.45
2023-05-09T03:11:00.591Z,15.44
2023-05-09T03:13:39.863Z,15.44
2023-05-09T03:16:21.784Z,15.43
2023-05-09T03:19:01.192Z,15.41
2023-05-09T03:21:40.861Z,15.40
2023-05-09T03:24:25.338Z,15.38
2023-05-09T03:27:04.630Z,15.36
2023-05-09T03:29:44.018Z,15.35
2023-05-09T03:32:23.373Z,15.33
2023-05-09T03:35:02.667Z,15.31
2023-05-09T03:37:42.735Z,15.30
2023-05-09T03:40:27.078Z,15.28
2023-05-09T03:43:06.413Z,15.26
2023-05-09T03:45:45.791Z,15.22
2023-05-09T03:48:25.322Z,15.18
2023-05-09T03:51:04.709Z,15.14
2023-05-09T03:53:44.731Z,15.10
2023-05-09T03:56:29.127Z,15.07
2023-05-09T03:59:08.404Z,15.02
2023-05-09T04:01:47.886Z,14.98
2023-05-09T04:04:27.312Z,14.92
2023-05-09T04:07:06.685Z,14.87
2023-05-09T04:09:46.127Z,14.82
2023-05-09T04:12:30.502Z,14.78
2023-05-09T04:15:09.949Z,14.75
2023-05-09T04:17:49.258Z,14.75
2023-05-09T04:20:28.808Z,14.74
2023-05-09T04:23:08.132Z,14.71
2023-05-09T04:25:47.709Z,14.70
2023-05-09T04:28:32.781Z,14.70
2023-05-09T04:31:14.025Z,14.70
2023-05-09T04:33:53.447Z,14.70
2023-05-09T04:36:35.014Z,14.71
2023-05-09T04:39:14.427Z,14.71
2023-05-09T04:41:54.126Z,14.71
2023-05-09T04:44:38.673Z,14.72
2023-05-09T04:47:18.013Z,14.73
2023-05-09T04:49:57.297Z,14.74
2023-05-09T04:52:37.090Z,14.75
2023-05-09T04:55:17.260Z,14.76
2023-05-09T04:57:56.687Z,14.77
2023-05-09T05:00:41.279Z,14.79
2023-05-09T05:03:20.562Z,14.81
2023-05-09T05:05:59.892Z,14.82
2023-05-09T05:08:39.164Z,14.83
2023-05-09T05:11:19.151Z,14.85
2023-05-09T05:13:58.483Z,14.87
2023-05-09T05:16:42.870Z,14.88
2023-05-09T05:19:22.229Z,14.91
2023-05-09T05:22:01.674Z,14.95
2023-05-09T05:24:40.940Z,14.98
2023-05-09T05:27:20.314Z,15.01
2023-05-09T05:29:59.644Z,15.04
2023-05-09T05:32:44.887Z,15.06
2023-05-09T05:35:25.890Z,15.10
2023-05-09T05:38:05.268Z,15.14
2023-05-09T05:40:44.581Z,15.20
2023-05-09T05:43:23.936Z,15.26
2023-05-09T05:46:03.313Z,15.35
2023-05-09T05:48:47.772Z,15.42
2023-05-09T05:51:27.164Z,15.47
2023-05-09T05:54:06.861Z,15.51
2023-05-09T05:56:46.117Z,15.55
2023-05-09T05:59:25.397Z,15.59
2023-05-09T06:02:04.729Z,15.63
2023-05-09T06:04:49.410Z,15.65
2023-05-09T06:07:28.726Z,15.68
2023-05-09T06:10:08.043Z,15.70
2023-05-09T06:12:47.360Z,15.73
2023-05-09T06:15:26.671Z,15.76
2023-05-09T06:18:06.872Z,15.80
2023-05-09T06:20:51.250Z,15.84
2023-05-09T06:23:30.558Z,15.87
2023-05-09T06:26:10.273Z,15.92
2023-05-09T06:28:49.567Z,15.98
2023-05-09T06:31:29.281Z,16.04
2023-05-09T06:34:08.597Z,16.12
2023-05-09T06:36:53.053Z,16.19
2023-05-09T06:39:32.330Z,16.28
2023-05-09T06:42:11.796Z,16.36
2023-05-09T06:44:51.134Z,16.44
2023-05-09T06:47:30.494Z,16.50
2023-05-09T06:50:09.867Z,16.55
2023-05-09T06:52:54.261Z,16.61
2023-05-09T06:55:33.745Z,16.67
2023-05-09T06:58:13.312Z,16.75
2023-05-09T07:00:53.314Z,16.84
2023-05-09T07:03:32.596Z,16.92
2023-05-09T07:06:12.054Z,17.02
2023-05-09T07:08:56.428Z,17.15
2023-05-09T07:11:35.797Z,17.28
2023-05-09T07:14:15.103Z,17.43
2023-05-09T07:17:02.185Z,17.57
2023-05-09T07:19:49.531Z,17.71
2023-05-09T07:22:31.292Z,17.83
2023-05-09T07:25:17.290Z,17.94
2023-05-09T07:27:56.737Z,18.08
2023-05-09T07:30:36.079Z,18.26
2023-05-09T07:33:15.345Z,18.38
2023-05-09T07:35:54.741Z,18.51
2023-05-09T07:38:34.215Z,18.64
2023-05-09T07:41:18.590Z,18.78
2023-05-09T07:43:57.934Z,18.87
2023-05-09T07:46:38.536Z,18.92
2023-05-09T07:49:17.831Z,18.93
2023-05-09T07:51:57.169Z,18.94
2023-05-09T07:54:36.687Z,18.99
2023-05-09T07:57:21.077Z,19.04
2023-05-09T08:00:00.368Z,19.10
2023-05-09T08:02:39.684Z,19.15
2023-05-09T08:05:19.241Z,19.19
2023-05-09T08:07:58.540Z,19.23
2023-05-09T08:10:38.198Z,19.25
2023-05-09T08:13:23.484Z,19.28
2023-05-09T08:16:03.067Z,19.35
2023-05-09T08:18:42.386Z,19.41
2023-05-09T08:21:22.262Z,19.47
2023-05-09T08:24:03.195Z,19.53
2023-05-09T08:26:42.597Z,19.60
2023-05-09T08:29:27.105Z,19.66
2023-05-09T08:32:06.357Z,19.75
2023-05-09T08:34:45.688Z,19.87
2023-05-09T08:37:25.135Z,20.03
2023-05-09T08:40:05.458Z,20.19
2023-05-09T08:42:46.905Z,20.28
2023-05-09T08:45:36.701Z,20.35
2023-05-09T08:48:17.437Z,20.37
2023-05-09T08:50:57.196Z,20.40
2023-05-09T08:53:36.899Z,20.44
2023-05-09T08:56:16.643Z,20.50
2023-05-09T08:58:56.381Z,20.56
2023-05-09T09:01:42.030Z,20.63
2023-05-09T09:04:21.378Z,20.72
2023-05-09T09:07:01.746Z,20.82
2023-05-09T09:09:43.930Z,21.00
2023-05-09T09:12:25.116Z,21.21
2023-05-09T09:15:11.683Z,21.44
2023-05-09T09:18:04.293Z,21.72
2023-05-09T09:20:52.367Z,21.88
2023-05-09T09:23:33.744Z,22.03
2023-05-09T09:26:13.176Z,22.12
2023-05-09T09:28:52.459Z,22.21
2023-05-09T09:31:34.128Z,22.37
2023-05-09T09:34:18.508Z,22.51
2023-05-09T09:36:57.980Z,22.65
2023-05-09T09:39:37.256Z,22.76
2023-05-09T09:42:20.264Z,22.85
2023-05-09T09:45:04.265Z,22.95
2023-05-09T09:47:44.118Z,23.07
2023-05-09T09:50:29.202Z,23.16
2023-05-09T09:53:08.569Z,23.24
2023-05-09T09:55:57.544Z,23.30
2023-05-09T09:58:36.915Z,23.41
2023-05-09T10:01:17.876Z,23.57
2023-05-09T10:03:57.224Z,23.75
2023-05-09T10:06:41.617Z,23.85
2023-05-09T10:09:21.058Z,23.93
2023-05-09T10:12:03.010Z,24.05
2023-05-09T10:14:44.109Z,24.14
2023-05-09T10:17:24.614Z,24.18
2023-05-09T10:20:05.160Z,24.21
2023-05-09T10:22:50.064Z,24.26
2023-05-09T10:25:34.921Z,24.31
2023-05-09T10:28:19.336Z,24.34
2023-05-09T10:31:08.727Z,24.41
2023-05-09T10:33:53.445Z,24.48
2023-05-09T10:36:32.772Z,24.54
2023-05-09T10:39:17.763Z,24.59
2023-05-09T10:41:57.227Z,24.65
2023-05-09T10:44:36.737Z,24.70
2023-05-09T10:47:16.709Z,24.70
2023-05-09T10:49:57.193Z,24.72
2023-05-09T10:52:39.913Z,24.79
2023-05-09T10:55:24.343Z,24.85
2023-05-09T10:58:04.250Z,24.92
2023-05-09T11:00:48.827Z,25.01
2023-05-09T11:03:28.785Z,25.12
2023-05-09T11:06:08.186Z,25.21
2023-05-09T11:08:49.808Z,25.30
2023-05-09T11:11:37.034Z,25.39
2023-05-09T11:14:16.298Z,25.50
2023-05-09T11:17:05.401Z,25.55
2023-05-09T11:20:04.600Z,25.59
2023-05-09T11:22:48.673Z,25.70
2023-05-09T11:25:34.259Z,25.77
2023-05-09T11:28:32.764Z,25.79
2023-05-09T11:31:19.630Z,25.85
2023-05-09T11:34:01.421Z,25.89
2023-05-09T11:36:40.766Z,25.95
2023-05-09T11:39:20.055Z,26.00
2023-05-09T11:42:00.225Z,26.06
2023-05-09T11:44:44.643Z,26.18
2023-05-09T11:47:24.250Z,26.24
2023-05-09T11:50:03.581Z,26.34
2023-05-09T11:52:44.616Z,26.45
2023-05-09T11:55:26.546Z,26.55
2023-05-09T11:58:06.305Z,26.64
2023-05-09T12:00:53.627Z,26.69
2023-05-09T12:03:33.529Z,26.77
2023-05-09T12:06:13.832Z,26.80
2023-05-09T12:08:54.305Z,26.78
2023-05-09T12:11:33.622Z,26.81
2023-05-09T12:14:12.908Z,26.87
2023-05-09T12:16:57.833Z,26.92
2023-05-09T12:19:37.153Z,26.94
2023-05-09T12:22:16.424Z,26.98
2023-05-09T12:24:57.030Z,27.07
2023-05-09T12:27:37.313Z,27.16
2023-05-09T12:30:17.412Z,27.23
2023-05-09T12:33:02.823Z,27.28
2023-05-09T12:35:42.086Z,27.32
2023-05-09T12:38:22.432Z,27.39
2023-05-09T12:41:15.520Z,27.46
2023-05-09T12:44:10.609Z,27.53
2023-05-09T12:47:00.886Z,27.56
2023-05-09T12:49:45.343Z,27.57
2023-05-09T12:52:26.484Z,27.60
2023-05-09T12:55:14.086Z,27.70
2023-05-09T12:58:06.476Z,27.79
2023-05-09T13:00:50.757Z,27.84
2023-05-09T13:03:32.349Z,27.83
2023-05-09T13:06:20.337Z,27.85
2023-05-09T13:09:11.132Z,27.92
2023-05-09T13:11:50.414Z,28.08
2023-05-09T13:14:30.926Z,28.20
2023-05-09T13:17:10.314Z,28.20
2023-05-09T13:19:49.619Z,28.21
2023-05-09T13:22:33.971Z,28.13
2023-05-09T13:25:14.636Z,28.13
2023-05-09T13:27:53.894Z,28.21
2023-05-09T13:30:33.551Z,28.27
2023-05-09T13:33:24.597Z,28.32
2023-05-09T13:36:05.048Z,28.36
2023-05-09T13:38:50.234Z,28.38
2023-05-09T13:41:31.980Z,28.36
2023-05-09T13:44:11.647Z,28.37
2023-05-09T13:46:51.025Z,28.43
2023-05-09T13:49:30.289Z,28.48
2023-05-09T13:52:10.212Z,28.62
2023-05-09T13:54:54.583Z,28.78
2023-05-09T13:57:34.297Z,28.94
2023-05-09T14:00:15.954Z,28.96
2023-05-09T14:02:55.548Z,29.01
2023-05-09T14:05:34.888Z,29.09
2023-05-09T14:08:14.339Z,29.17
2023-05-09T14:10:58.714Z,29.32
2023-05-09T14:13:38.245Z,29.41
2023-05-09T14:16:17.617Z,29.41
2023-05-09T14:18:56.942Z,29.42
2023-05-09T14:21:36.219Z,29.50
2023-05-09T14:24:16.485Z,29.59
2023-05-09T14:27:00.953Z,29.78
2023-05-09T14:29:41.634Z,29.96
2023-05-09T14:32:20.902Z,30.01
2023-05-09T14:35:03.334Z,29.98
2023-05-09T14:37:42.709Z,29.92
2023-05-09T14:40:22.099Z,29.87
2023-05-09T14:43:07.241Z,29.78
2023-05-09T14:45:46.532Z,29.69
2023-05-09T14:48:25.817Z,29.58
2023-05-09T14:51:05.104Z,29.46
2023-05-09T14:53:46.194Z,29.39
2023-05-09T14:56:25.475Z,29.29
2023-05-09T14:59:10.650Z,29.16
2023-05-09T15:01:49.953Z,29.03
2023-05-09T15:04:31.871Z,28.95
2023-05-09T15:07:11.276Z,28.96
2023-05-09T15:09:50.769Z,29.19
2023-05-09T15:12:30.132Z,29.48
2023-05-09T15:15:26.454Z,29.83
2023-05-09T15:18:05.806Z,30.08
2023-05-09T15:20:46.426Z,30.27
2023-05-09T15:23:25.698Z,30.28
2023-05-09T15:26:05.120Z,30.27
2023-05-09T15:28:45.427Z,30.16
2023-05-09T15:31:29.896Z,29.99
2023-05-09T15:34:09.250Z,29.92
2023-05-09T15:36:48.575Z,29.87
2023-05-09T15:39:28.357Z,29.76
2023-05-09T15:42:10.081Z,29.53
2023-05-09T15:44:50.237Z,29.29
2023-05-09T15:47:34.632Z,29.19
2023-05-09T15:50:15.161Z,28.98
2023-05-09T15:52:54.598Z,28.79
2023-05-09T15:55:33.902Z,28.58
2023-05-09T15:58:15.169Z,28.39
2023-05-09T16:00:54.446Z,28.12
2023-05-09T16:03:39.223Z,27.87
2023-05-09T16:06:18.642Z,27.61
2023-05-09T16:08:58.387Z,27.41
2023-05-09T16:11:37.862Z,27.16
2023-05-09T16:14:17.685Z,26.95
2023-05-09T16:16:58.476Z,26.78
2023-05-09T16:19:43.652Z,26.61
2023-05-09T16:22:23.057Z,26.42
2023-05-09T16:25:02.405Z,26.28
2023-05-09T16:27:41.752Z,26.16
2023-05-09T16:30:25.594Z,26.03
2023-05-09T16:33:04.902Z,25.93
2023-05-09T16:35:49.277Z,25.80
2023-05-09T16:38:28.836Z,25.68
2023-05-09T16:41:08.091Z,25.56
2023-05-09T16:43:47.463Z,25.44
2023-05-09T16:46:26.927Z,25.36
2023-05-09T16:49:06.141Z,25.30
2023-05-09T16:51:50.898Z,25.24
2023-05-09T16:54:30.152Z,25.18
2023-05-09T16:57:09.618Z,25.11
2023-05-09T16:59:49.120Z,25.01
2023-05-09T17:02:28.538Z,24.91
2023-05-09T17:05:07.839Z,24.84
2023-05-09T17:07:52.226Z,24.79
2023-05-09T17:10:31.602Z,24.75
2023-05-09T17:13:13.212Z,24.71
2023-05-09T17:15:53.786Z,24.64
2023-05-09T17:18:37.391Z,24.58
2023-05-09T17:21:17.938Z,24.51
2023-05-09T17:24:03.244Z,24.44
2023-05-09T17:26:42.534Z,24.38
2023-05-09T17:29:21.866Z,24.31
2023-05-09T17:32:01.754Z,24.25
2023-05-09T17:34:41.836Z,24.20
2023-05-09T17:37:21.206Z,24.14
2023-05-09T17:40:06.374Z,24.07
2023-05-09T17:42:45.643Z,24.01
2023-05-09T17:45:25.086Z,23.94
2023-05-09T17:48:04.635Z,23.87
2023-05-09T17:50:44.775Z,23.81
2023-05-09T17:53:24.033Z,23.76
2023-05-09T17:56:08.411Z,23.68
2023-05-09T17:58:48.365Z,23.57
2023-05-09T18:01:28.168Z,23.45
2023-05-09T18:04:07.491Z,23.33
2023-05-09T18:06:46.775Z,23.08
2023-05-09T18:09:26.007Z,22.30
2023-05-09T18:12:11.057Z,21.51
2023-05-09T18:14:50.494Z,21.11
2023-05-09T18:17:29.813Z,20.94
2023-05-09T18:20:09.171Z,20.88
2023-05-09T18:22:48.462Z,20.84
2023-05-09T18:25:27.810Z,20.79
2023-05-09T18:28:12.458Z,20.70
2023-05-09T18:30:51.725Z,20.61
2023-05-09T18:33:33.047Z,20.55
2023-05-09T18:36:13.427Z,20.47
2023-05-09T18:38:52.688Z,20.39
2023-05-09T18:41:33.086Z,20.32
2023-05-09T18:44:17.536Z,20.25
2023-05-09T18:46:57.709Z,20.18
2023-05-09T18:49:37.035Z,20.15
2023-05-09T18:52:18.743Z,20.13
2023-05-09T18:54:57.993Z,20.10
2023-05-09T18:57:37.252Z,20.07
2023-05-09T19:00:22.562Z,20.04
2023-05-09T19:03:01.808Z,20.00
2023-05-09T19:05:41.182Z,19.95
2023-05-09T19:08:20.449Z,19.90
2023-05-09T19:11:03.234Z,19.82
2023-05-09T19:13:49.605Z,19.71
2023-05-09T19:16:34.117Z,19.63
2023-05-09T19:19:17.265Z,19.55
2023-05-09T19:21:56.552Z,19.44
2023-05-09T19:24:35.875Z,19.37
2023-05-09T19:27:15.145Z,19.32
2023-05-09T19:29:54.551Z,19.28
2023-05-09T19:32:39.003Z,19.27
2023-05-09T19:35:18.384Z,19.25
2023-05-09T19:37:57.703Z,19.21
2023-05-09T19:40:37.033Z,19.16
2023-05-09T19:43:16.303Z,19.13
2023-05-09T19:45:55.619Z,19.07
2023-05-09T19:48:40.076Z,19.04
2023-05-09T19:51:19.559Z,19.03
2023-05-09T19:53:58.833Z,19.03
2023-05-09T19:56:38.813Z,19.04
2023-05-09T19:59:18.046Z,19.05
2023-05-09T20:01:57.602Z,19.05
2023-05-09T20:04:50.673Z,19.05
2023-05-09T20:07:30.861Z,19.04
2023-05-09T20:10:10.360Z,18.99
2023-05-09T20:12:49.977Z,18.95
2023-05-09T20:15:29.288Z,18.92
2023-05-09T20:18:08.821Z,18.90
2023-05-09T20:20:53.276Z,18.89
2023-05-09T20:23:32.557Z,18.88
2023-05-09T20:26:11.815Z,18.87
2023-05-09T20:28:51.104Z,18.86
2023-05-09T20:31:30.400Z,18.83
2023-05-09T20:34:11.802Z,18.81
2023-05-09T20:36:57.757Z,18.78
2023-05-09T20:39:37.114Z,18.76
2023-05-09T20:42:16.397Z,18.75
2023-05-09T20:44:55.993Z,18.74
2023-05-09T20:47:35.283Z,18.73
2023-05-09T20:50:15.970Z,18.72
2023-05-09T20:53:00.453Z,18.70
2023-05-09T20:55:39.743Z,18.67
2023-05-09T20:58:19.939Z,18.63
2023-05-09T21:00:59.597Z,18.62
2023-05-09T21:03:39.122Z,18.61
2023-05-09T21:06:18.463Z,18.60
2023-05-09T21:09:02.879Z,18.59
2023-05-09T21:11:42.812Z,18.59
2023-05-09T21:14:25.567Z,18.58
2023-05-09T21:17:05.220Z,18.57
2023-05-09T21:19:44.510Z,18.57
2023-05-09T21:22:23.802Z,18.56
2023-05-09T21:25:08.198Z,18.55
2023-05-09T21:27:47.653Z,18.54
2023-05-09T21:30:27.136Z,18.53
2023-05-09T21:33:06.485Z,18.51
2023-05-09T21:35:45.761Z,18.51
2023-05-09T21:38:25.434Z,18.51
2023-05-09T21:41:09.924Z,18.50
2023-05-09T21:43:49.188Z,18.50
2023-05-09T21:46:28.465Z,18.48
2023-05-09T21:49:08.094Z,18.47
2023-05-09T21:51:47.360Z,18.46
2023-05-09T21:54:27.216Z,18.47
2023-05-09T21:57:11.575Z,18.47
2023-05-09T21:59:50.846Z,18.47
2023-05-09T22:02:30.257Z,18.47
2023-05-09T22:05:10.032Z,18.46
2023-05-09T22:07:49.441Z,18.45
2023-05-09T22:10:28.811Z,18.44
2023-05-09T22:13:13.267Z,18.42
2023-05-09T22:15:52.689Z,18.41
2023-05-09T22:18:32.037Z,18.40
2023-05-09T22:21:11.732Z,18.38
2023-05-09T22:23:51.149Z,18.36
2023-05-09T22:26:30.415Z,18.35
2023-05-09T22:29:17.694Z,18.34
2023-05-09T22:31:57.070Z,18.30
2023-05-09T22:34:36.476Z,18.27
2023-05-09T22:37:15.766Z,18.25
2023-05-09T22:39:55.088Z,18.22
2023-05-09T22:42:35.944Z,18.19
2023-05-09T22:45:20.682Z,18.16
2023-05-09T22:48:00.035Z,18.12
2023-05-09T22:50:39.612Z,18.07
2023-05-09T22:53:18.921Z,18.04
2023-05-09T22:55:59.074Z,18.01
2023-05-09T22:58:38.343Z,17.99
2023-05-09T23:01:22.774Z,17.95
2023-05-09T23:04:02.139Z,17.94
2023-05-09T23:06:41.426Z,17.93
2023-05-09T23:09:20.749Z,17.91
2023-05-09T23:12:00.741Z,17.89
2023-05-09T23:14:39.991Z,17.87
2023-05-09T23:17:24.419Z,17.86
2023-05-09T23:20:05.240Z,17.84
2023-05-09T23:22:44.585Z,17.83
2023-05-09T23:25:23.939Z,17.82
2023-05-09T23:28:03.446Z,17.80
2023-05-09T23:30:42.815Z,17.78
2023-05-09T23:33:27.259Z,17.76
2023-05-09T23:36:06.527Z,17.76
2023-05-09T23:38:46.029Z,17.74
2023-05-09T23:41:25.335Z,17.72
2023-05-09T23:44:04.662Z,17.70
2023-05-09T23:46:44.052Z,17.69
2023-05-09T23:49:28.558Z,17.67
2023-05-09T23:52:07.849Z,17.66
2023-05-09T23:54:47.686Z,17.65
2023-05-09T23:57:27.572Z,17.64
